createdAt,value
2023-03-05T00:00:40.535Z,18.42
2023-03-05T00:03:07.298Z,15.68
2023-03-05T00:05:34.893Z,13.63
2023-03-05T00:08:01.594Z,18.05
2023-03-05T00:10:28.389Z,17.73
2023-03-05T00:12:54.920Z,18.08
2023-03-05T00:15:21.700Z,17.63
2023-03-05T00:17:48.314Z,17.30
2023-03-05T00:20:14.975Z,14.95
2023-03-05T00:22:41.644Z,17.90
2023-03-05T00:25:08.594Z,18.52
2023-03-05T00:27:35.118Z,17.90
2023-03-05T00:30:01.866Z,17.60
2023-03-05T00:32:28.631Z,17.13
2023-03-05T00:34:55.162Z,19.70
2023-03-05T00:37:21.850Z,18.25
2023-03-05T00:39:48.469Z,14.05
2023-03-05T00:42:15.044Z,19.02
2023-03-05T00:44:41.746Z,18.70
2023-03-05T00:47:08.352Z,16.85
2023-03-05T00:49:34.942Z,18.92
2023-03-05T00:52:01.565Z,18.70
2023-03-05T00:54:28.216Z,17.80
2023-03-05T00:56:54.737Z,19.05
2023-03-05T00:59:21.468Z,17.55
2023-03-05T01:01:48.220Z,17.30
2023-03-05T01:04:14.926Z,16.30
2023-03-05T01:06:44.872Z,17.73
2023-03-05T01:09:11.787Z,17.17
2023-03-05T01:11:38.341Z,19.58
2023-03-05T01:14:05.007Z,18.77
2023-03-05T01:16:31.864Z,17.25
2023-03-05T01:18:58.515Z,16.17
2023-03-05T01:21:25.387Z,18.88
2023-03-05T01:23:52.055Z,16.50
2023-03-05T01:26:18.577Z,19.10
2023-03-05T01:28:45.131Z,17.30
2023-03-05T01:31:12.184Z,16.17
2023-03-05T01:33:39.456Z,16.50
2023-03-05T01:36:13.521Z,15.73
2023-03-05T01:38:41.123Z,17.45
2023-03-05T01:41:09.174Z,16.08
2023-03-05T01:43:35.825Z,14.95
2023-03-05T01:46:32.005Z,17.02
2023-03-05T01:49:04.668Z,16.00
2023-03-05T01:51:42.928Z,16.63
2023-03-05T01:54:13.515Z,15.95
2023-03-05T01:56:41.836Z,16.70
2023-03-05T01:59:08.923Z,15.35
2023-03-05T02:04:13.554Z,16.80
2023-03-05T02:06:41.684Z,16.50
2023-03-05T02:09:08.275Z,17.48
2023-03-05T02:11:35.683Z,16.23
2023-03-05T02:14:04.071Z,16.05
2023-03-05T02:16:36.929Z,15.80
2023-03-05T02:19:05.872Z,16.17
2023-03-05T02:21:44.760Z,16.50
2023-03-05T02:24:13.175Z,16.23
2023-03-05T02:26:39.950Z,14.63
2023-03-05T02:29:08.893Z,15.85
2023-03-05T02:31:35.650Z,15.65
2023-03-05T02:34:02.314Z,16.27
2023-03-05T02:36:28.974Z,16.67
2023-03-05T02:38:57.130Z,16.00
2023-03-05T02:41:24.727Z,17.50
2023-03-05T02:43:51.590Z,16.55
2023-03-05T02:46:18.392Z,16.33
2023-03-05T02:48:45.129Z,15.70
2023-03-05T02:51:12.140Z,15.98
2023-03-05T02:53:38.782Z,15.25
2023-03-05T02:56:05.775Z,14.65
2023-03-05T02:58:32.403Z,13.60
2023-03-05T03:00:59.053Z,14.10
2023-03-05T03:03:25.642Z,14.00
2023-03-05T03:05:52.295Z,13.55
2023-03-05T03:08:18.925Z,13.45
2023-03-05T03:10:45.493Z,14.40
2023-03-05T03:13:12.078Z,13.77
2023-03-05T03:15:40.396Z,13.90
2023-03-05T03:18:06.970Z,13.40
2023-03-05T03:20:35.041Z,12.40
2023-03-05T03:23:01.982Z,13.60
2023-03-05T03:25:28.647Z,13.32
2023-03-05T03:27:55.228Z,13.55
2023-03-05T03:30:21.804Z,13.77
2023-03-05T03:32:48.356Z,13.18
2023-03-05T03:35:15.088Z,13.20
2023-03-05T03:37:41.675Z,14.07
2023-03-05T03:40:09.571Z,13.23
2023-03-05T03:42:36.212Z,13.13
2023-03-05T03:45:03.400Z,13.90
2023-03-05T03:47:31.144Z,12.45
2023-03-05T03:49:59.121Z,13.13
2023-03-05T03:52:26.528Z,13.35
2023-03-05T03:54:55.717Z,12.90
2023-03-05T03:57:22.368Z,13.52
2023-03-05T03:59:50.362Z,13.90
2023-03-05T04:02:17.393Z,12.02
2023-03-05T04:04:44.213Z,12.75
2023-03-05T04:07:10.941Z,13.93
2023-03-05T04:09:37.486Z,13.23
2023-03-05T04:12:04.192Z,12.88
2023-03-05T04:14:30.836Z,12.63
2023-03-05T04:16:57.522Z,12.93
2023-03-05T04:19:24.223Z,13.88
2023-03-05T04:21:50.854Z,13.27
2023-03-05T04:24:17.500Z,13.05
2023-03-05T04:26:44.102Z,13.25
2023-03-05T04:29:11.059Z,11.55
2023-03-05T04:31:37.573Z,12.25
2023-03-05T04:34:04.136Z,12.18
2023-03-05T04:36:30.723Z,12.23
2023-03-05T04:38:57.424Z,11.57
2023-03-05T04:41:24.073Z,10.95
2023-03-05T04:43:50.738Z,11.63
2023-03-05T04:46:17.323Z,12.45
2023-03-05T04:48:43.905Z,12.05
2023-03-05T04:51:10.551Z,11.98
2023-03-05T04:53:37.164Z,10.85
2023-03-05T04:56:04.164Z,12.38
2023-03-05T04:58:30.760Z,11.88
2023-03-05T05:01:04.660Z,12.05
2023-03-05T05:03:31.785Z,13.57
2023-03-05T05:06:00.217Z,12.93
2023-03-05T05:08:27.978Z,13.00
2023-03-05T05:11:03.579Z,13.80
2023-03-05T05:13:31.404Z,12.63
2023-03-05T05:15:58.371Z,13.10
2023-03-05T05:18:25.477Z,13.82
2023-03-05T05:20:52.158Z,14.13
2023-03-05T05:23:19.288Z,14.23
2023-03-05T05:25:45.855Z,14.88
2023-03-05T05:28:12.554Z,14.60
2023-03-05T05:30:39.266Z,14.90
2023-03-05T05:33:05.852Z,14.35
2023-03-05T05:35:32.522Z,13.63
2023-03-05T05:37:59.069Z,14.93
2023-03-05T05:40:25.638Z,13.50
2023-03-05T05:42:52.428Z,14.93
2023-03-05T05:45:19.161Z,14.20
2023-03-05T05:47:45.786Z,14.13
2023-03-05T05:50:12.653Z,15.82
2023-03-05T05:52:39.248Z,15.50
2023-03-05T05:55:06.513Z,14.48
2023-03-05T05:57:34.446Z,15.48
2023-03-05T06:00:01.229Z,14.68
2023-03-05T06:02:27.917Z,14.77
2023-03-05T06:04:55.757Z,14.70
2023-03-05T06:07:23.173Z,14.82
2023-03-05T06:09:49.790Z,14.30
2023-03-05T06:12:17.709Z,14.45
2023-03-05T06:14:44.574Z,15.70
2023-03-05T06:17:12.920Z,15.10
2023-03-05T06:19:41.534Z,15.88
2023-03-05T06:22:08.079Z,15.52
2023-03-05T06:24:34.785Z,15.02
2023-03-05T06:27:01.752Z,15.45
2023-03-05T06:29:28.344Z,15.77
2023-03-05T06:31:55.120Z,15.00
2023-03-05T06:34:21.794Z,15.85
2023-03-05T06:36:48.413Z,14.52
2023-03-05T06:39:14.994Z,15.95
2023-03-05T06:41:41.670Z,14.48
2023-03-05T06:44:08.236Z,15.05
2023-03-05T06:46:37.464Z,15.70
2023-03-05T06:49:04.245Z,14.65
2023-03-05T06:51:33.951Z,14.18
2023-03-05T06:54:03.057Z,15.27
2023-03-05T06:56:30.076Z,14.23
2023-03-05T06:58:56.951Z,14.90
2023-03-05T07:01:23.859Z,15.57
2023-03-05T07:03:51.928Z,14.82
2023-03-05T07:06:18.774Z,16.73
2023-03-05T07:08:45.344Z,15.45
2023-03-05T07:11:20.650Z,15.65
2023-03-05T07:13:47.950Z,14.68
2023-03-05T07:16:18.317Z,16.02
2023-03-05T07:18:46.044Z,15.63
2023-03-05T07:21:17.605Z,15.10
2023-03-05T07:23:44.303Z,15.13
2023-03-05T07:26:11.580Z,16.63
2023-03-05T07:28:38.287Z,16.15
2023-03-05T07:31:12.161Z,14.63
2023-03-05T07:33:38.950Z,16.10
2023-03-05T07:36:08.707Z,15.10
2023-03-05T07:38:35.767Z,15.93
2023-03-05T07:41:07.453Z,16.17
2023-03-05T07:43:34.012Z,16.13
2023-03-05T07:46:03.533Z,15.88
2023-03-05T07:48:30.250Z,15.55
2023-03-05T07:51:08.480Z,15.32
2023-03-05T07:53:35.122Z,15.90
2023-03-05T07:56:01.786Z,16.30
2023-03-05T07:58:29.193Z,15.98
2023-03-05T08:00:55.982Z,14.82
2023-03-05T08:03:22.551Z,16.33
2023-03-05T08:05:49.177Z,15.85
2023-03-05T08:08:16.639Z,16.38
2023-03-05T08:10:43.337Z,17.55
2023-03-05T08:13:10.378Z,17.13
2023-03-05T08:15:38.298Z,18.50
2023-03-05T08:18:06.357Z,16.77
2023-03-05T08:20:35.791Z,16.20
2023-03-05T08:23:03.482Z,15.23
2023-03-05T08:25:30.099Z,16.42
2023-03-05T08:27:56.994Z,15.57
2023-03-05T08:30:27.290Z,16.92
2023-03-05T08:32:54.677Z,18.10
2023-03-05T08:35:21.497Z,16.40
2023-03-05T08:37:48.829Z,16.00
2023-03-05T08:40:18.015Z,16.02
2023-03-05T08:42:44.599Z,16.55
2023-03-05T08:45:11.846Z,16.00
2023-03-05T08:47:38.479Z,16.17
2023-03-05T08:50:05.402Z,16.90
2023-03-05T08:52:32.096Z,16.30
2023-03-05T08:54:58.617Z,15.43
2023-03-05T08:57:25.112Z,14.93
2023-03-05T08:59:51.776Z,15.07
2023-03-05T09:02:18.315Z,15.02
2023-03-05T09:04:44.819Z,13.25
2023-03-05T09:07:11.537Z,14.82
2023-03-05T09:09:38.075Z,15.25
2023-03-05T09:12:04.895Z,15.00
2023-03-05T09:14:31.643Z,16.70
2023-03-05T09:16:58.652Z,16.60
2023-03-05T09:19:25.444Z,15.32
2023-03-05T09:21:52.101Z,15.15
2023-03-05T09:24:18.628Z,16.80
2023-03-05T09:26:45.181Z,17.85
2023-03-05T09:29:12.575Z,18.20
2023-03-05T09:31:39.859Z,17.67
2023-03-05T09:34:08.278Z,17.67
2023-03-05T09:36:35.421Z,17.60
2023-03-05T09:39:02.290Z,17.23
2023-03-05T09:41:34.511Z,15.93
2023-03-05T09:44:32.080Z,15.38
2023-03-05T09:47:41.488Z,16.27
2023-03-05T09:50:14.150Z,17.10
2023-03-05T09:52:50.399Z,14.75
2023-03-05T09:55:29.622Z,16.63
2023-03-05T09:58:02.128Z,17.88
2023-03-05T10:00:34.592Z,16.58
2023-03-05T10:03:06.723Z,17.23
2023-03-05T10:05:59.416Z,17.23
2023-03-05T10:08:37.190Z,16.95
2023-03-05T10:11:06.994Z,16.63
2023-03-05T10:13:38.452Z,16.60
2023-03-05T10:16:27.908Z,15.00
2023-03-05T10:19:07.949Z,17.27
2023-03-05T10:21:43.324Z,15.75
2023-03-05T10:24:21.974Z,16.60
2023-03-05T10:26:56.114Z,16.60
2023-03-05T10:29:49.081Z,17.20
2023-03-05T10:32:22.160Z,15.52
2023-03-05T10:35:09.998Z,18.17
2023-03-05T10:37:48.846Z,18.25
2023-03-05T10:40:35.180Z,17.13
2023-03-05T10:43:14.027Z,16.13
2023-03-05T10:45:44.754Z,16.48
2023-03-05T10:48:36.674Z,16.50
2023-03-05T10:51:10.634Z,15.00
2023-03-05T10:53:42.663Z,14.85
2023-03-05T10:56:12.083Z,15.93
2023-03-05T10:58:38.626Z,15.38
2023-03-05T11:01:11.344Z,16.35
2023-03-05T11:04:03.709Z,17.05
2023-03-05T11:06:39.604Z,16.48
2023-03-05T11:09:24.638Z,16.58
2023-03-05T11:12:20.093Z,16.00
2023-03-05T11:15:02.300Z,13.50
2023-03-05T11:17:38.581Z,15.00
2023-03-05T11:20:29.678Z,16.80
2023-03-05T11:23:13.074Z,15.95
2023-03-05T11:25:51.367Z,16.85
2023-03-05T11:28:32.025Z,16.77
2023-03-05T11:31:07.746Z,14.15
2023-03-05T11:33:36.520Z,15.77
2023-03-05T11:36:20.335Z,14.85
2023-03-05T11:38:52.942Z,15.63
2023-03-05T11:41:26.273Z,16.65
2023-03-05T11:43:54.530Z,14.93
2023-03-05T11:46:22.263Z,14.45
2023-03-05T11:48:50.169Z,15.55
2023-03-05T11:51:23.251Z,14.55
2023-03-05T11:53:54.466Z,13.30
2023-03-05T11:59:20.558Z,14.05
2023-03-05T12:01:51.517Z,13.82
2023-03-05T12:04:20.057Z,14.07
2023-03-05T12:06:57.990Z,13.43
2023-03-05T12:09:31.574Z,13.50
2023-03-05T12:12:30.980Z,12.98
2023-03-05T12:15:25.892Z,12.10
2023-03-05T12:18:10.999Z,13.18
2023-03-05T12:20:47.989Z,14.65
2023-03-05T12:23:19.026Z,14.02
2023-03-05T12:25:57.897Z,14.52
2023-03-05T12:28:37.168Z,13.82
2023-03-05T12:31:23.254Z,13.23
2023-03-05T12:33:49.942Z,14.48
2023-03-05T12:36:19.565Z,15.75
2023-03-05T12:38:53.003Z,15.90
2023-03-05T12:41:22.267Z,14.65
2023-03-05T12:44:07.249Z,14.77
2023-03-05T12:46:39.355Z,12.95
2023-03-05T12:49:18.024Z,14.68
2023-03-05T12:51:52.691Z,13.65
2023-03-05T12:54:35.263Z,13.60
2023-03-05T12:57:06.093Z,13.27
2023-03-05T12:59:51.419Z,12.30
2023-03-05T13:02:26.714Z,12.77
2023-03-05T13:04:58.547Z,13.88
2023-03-05T13:07:25.049Z,12.57
2023-03-05T13:09:57.336Z,12.50
2023-03-05T13:12:26.165Z,13.25
2023-03-05T13:15:02.635Z,12.88
2023-03-05T13:17:44.574Z,12.35
2023-03-05T13:20:42.625Z,12.10
2023-03-05T13:23:27.974Z,12.20
2023-03-05T13:26:04.344Z,13.93
2023-03-05T13:28:32.819Z,12.75
2023-03-05T13:31:02.866Z,13.48
2023-03-05T13:33:32.699Z,13.05
2023-03-05T13:35:59.789Z,13.85
2023-03-05T13:38:35.845Z,12.75
2023-03-05T13:41:29.456Z,12.65
2023-03-05T13:44:01.956Z,12.88
2023-03-05T13:46:34.416Z,13.60
2023-03-05T13:49:22.259Z,13.35
2023-03-05T13:51:54.934Z,12.85
2023-03-05T13:54:23.646Z,13.30
2023-03-05T13:56:56.627Z,13.82
2023-03-05T13:59:25.957Z,13.10
2023-03-05T14:01:53.056Z,13.85
2023-03-05T14:04:23.481Z,14.10
2023-03-05T14:06:55.750Z,13.18
2023-03-05T14:09:31.005Z,13.43
2023-03-05T14:12:14.824Z,13.25
2023-03-05T14:14:43.715Z,13.27
2023-03-05T14:17:36.722Z,13.77
2023-03-05T14:20:09.838Z,12.85
2023-03-05T14:22:38.635Z,13.02
2023-03-05T14:25:06.564Z,12.77
2023-03-05T14:27:36.801Z,12.45
2023-03-05T14:30:05.219Z,14.23
2023-03-05T14:32:34.787Z,13.57
2023-03-05T14:35:04.520Z,12.77
2023-03-05T14:37:42.234Z,12.02
2023-03-05T14:40:12.283Z,13.75
2023-03-05T14:42:54.510Z,12.55
2023-03-05T14:45:27.434Z,13.88
2023-03-05T14:47:57.352Z,14.10
2023-03-05T14:50:36.428Z,13.27
2023-03-05T14:53:07.485Z,12.77
2023-03-05T14:58:06.904Z,12.57
2023-03-05T15:00:33.484Z,12.13
2023-03-05T15:03:00.239Z,13.23
2023-03-05T15:05:27.071Z,12.85
2023-03-05T15:07:53.701Z,12.88
2023-03-05T15:10:23.557Z,13.43
2023-03-05T15:12:51.440Z,13.60
2023-03-05T15:15:19.703Z,13.30
2023-03-05T15:17:48.710Z,13.40
2023-03-05T15:20:19.179Z,12.48
2023-03-05T15:22:45.790Z,13.35
2023-03-05T15:25:13.294Z,12.95
2023-03-05T15:27:40.152Z,12.88
2023-03-05T15:30:09.376Z,13.35
2023-03-05T15:32:36.079Z,13.35
2023-03-05T15:35:03.005Z,13.05
2023-03-05T15:37:29.771Z,13.45
2023-03-05T15:39:56.376Z,13.32
2023-03-05T15:42:23.060Z,14.35
2023-03-05T15:44:49.620Z,13.90
2023-03-05T15:47:16.247Z,13.20
2023-03-05T15:49:42.914Z,12.93
2023-03-05T15:52:09.472Z,13.35
2023-03-05T15:54:36.935Z,13.40
2023-03-05T15:57:08.099Z,12.68
2023-03-05T15:59:34.645Z,12.50
2023-03-05T16:02:02.145Z,13.52
2023-03-05T16:04:31.812Z,13.13
2023-03-05T16:07:00.699Z,12.98
2023-03-05T16:09:32.535Z,12.63
2023-03-05T16:11:59.090Z,12.10
2023-03-05T16:14:27.880Z,12.20
2023-03-05T16:16:55.981Z,12.18
2023-03-05T16:19:23.933Z,11.82
2023-03-05T16:21:50.475Z,12.38
2023-03-05T16:24:17.606Z,12.35
2023-03-05T16:26:44.224Z,12.10
2023-03-05T16:29:11.938Z,13.13
2023-03-05T16:31:40.750Z,11.43
2023-03-05T16:34:07.452Z,12.13
2023-03-05T16:36:35.684Z,13.00
2023-03-05T16:39:04.598Z,12.68
2023-03-05T16:41:31.799Z,12.48
2023-03-05T16:43:59.533Z,12.80
2023-03-05T16:46:28.861Z,12.25
2023-03-05T16:48:55.561Z,12.35
2023-03-05T16:51:22.379Z,11.73
2023-03-05T16:53:49.543Z,12.07
2023-03-05T16:56:16.541Z,11.48
2023-03-05T16:58:43.098Z,11.30
2023-03-05T17:01:18.573Z,12.10
2023-03-05T17:03:46.341Z,11.35
2023-03-05T17:06:18.195Z,10.82
2023-03-05T17:08:46.371Z,10.18
2023-03-05T17:11:13.648Z,10.60
2023-03-05T17:13:40.870Z,11.02
2023-03-05T17:16:11.269Z,9.70
2023-03-05T17:18:38.206Z,10.02
2023-03-05T17:21:07.197Z,10.63
2023-03-05T17:23:35.632Z,9.95
2023-03-05T17:26:11.118Z,9.82
2023-03-05T17:28:38.824Z,9.05
2023-03-05T17:31:05.586Z,9.93
2023-03-05T17:33:32.908Z,11.85
2023-03-05T17:35:59.775Z,10.10
2023-03-05T17:38:26.845Z,9.25
2023-03-05T17:40:53.435Z,9.63
2023-03-05T17:43:20.403Z,9.95
2023-03-05T17:45:47.545Z,10.10
2023-03-05T17:48:15.729Z,9.68
2023-03-05T17:50:42.970Z,10.35
2023-03-05T17:53:09.713Z,10.27
2023-03-05T17:55:36.301Z,9.18
2023-03-05T17:58:02.913Z,10.63
2023-03-05T18:00:31.118Z,8.90
2023-03-05T18:03:00.779Z,10.05
2023-03-05T18:05:29.050Z,9.40
2023-03-05T18:07:56.341Z,9.32
2023-03-05T18:10:28.310Z,10.23
2023-03-05T18:12:55.176Z,9.13
2023-03-05T18:15:23.866Z,9.88
2023-03-05T18:17:51.301Z,9.63
2023-03-05T18:20:32.261Z,9.82
2023-03-05T18:23:01.260Z,9.82
2023-03-05T18:25:31.286Z,9.73
2023-03-05T18:28:02.400Z,9.70
2023-03-05T18:32:55.998Z,8.85
2023-03-05T18:35:23.155Z,9.60
2023-03-05T18:37:49.789Z,9.48
2023-03-05T18:40:19.783Z,10.27
2023-03-05T18:42:46.633Z,9.93
2023-03-05T18:45:15.260Z,9.13
2023-03-05T18:47:44.702Z,9.73
2023-03-05T18:50:16.874Z,10.25
2023-03-05T18:52:43.763Z,10.40
2023-03-05T18:55:22.638Z,9.68
2023-03-05T18:57:49.346Z,10.25
2023-03-05T19:00:19.276Z,9.98
2023-03-05T19:02:45.950Z,11.13
2023-03-05T19:05:14.469Z,10.95
2023-03-05T19:07:41.327Z,9.32
2023-03-05T19:10:10.065Z,9.65
2023-03-05T19:12:45.394Z,8.88
2023-03-05T19:15:13.691Z,9.73
2023-03-05T19:17:40.751Z,10.02
2023-03-05T19:20:10.352Z,9.18
2023-03-05T19:22:37.053Z,9.90
2023-03-05T19:25:03.772Z,9.35
2023-03-05T19:27:30.325Z,10.05
2023-03-05T19:29:57.087Z,9.65
2023-03-05T19:32:24.195Z,10.55
2023-03-05T19:34:54.417Z,10.57
2023-03-05T19:37:21.149Z,11.20
2023-03-05T19:39:48.162Z,9.45
2023-03-05T19:42:15.132Z,11.52
2023-03-05T19:44:41.822Z,14.27
2023-03-05T19:47:08.388Z,13.95
2023-03-05T19:49:35.895Z,15.65
2023-03-05T19:52:04.408Z,15.77
2023-03-05T19:54:31.097Z,16.27
2023-03-05T19:56:58.982Z,15.68
2023-03-05T19:59:26.676Z,16.80
2023-03-05T20:01:53.625Z,16.90
2023-03-05T20:04:22.360Z,17.08
2023-03-05T20:06:49.515Z,18.10
2023-03-05T20:09:16.608Z,17.80
2023-03-05T20:11:43.625Z,17.73
2023-03-05T20:14:13.151Z,18.52
2023-03-05T20:16:39.735Z,19.42
2023-03-05T20:19:07.957Z,18.70
2023-03-05T20:21:37.549Z,19.10
2023-03-05T20:24:09.567Z,18.30
2023-03-05T20:26:38.263Z,18.17
2023-03-05T20:29:05.153Z,17.92
2023-03-05T20:31:37.165Z,17.50
2023-03-05T20:34:16.496Z,18.58
2023-03-05T20:36:43.229Z,18.58
2023-03-05T20:39:10.430Z,18.25
2023-03-05T20:41:39.131Z,18.52
2023-03-05T20:44:07.046Z,18.38
2023-03-05T20:46:36.876Z,18.17
2023-03-05T20:49:04.686Z,18.20
2023-03-05T20:51:35.077Z,17.88
2023-03-05T20:54:04.906Z,17.88
2023-03-05T20:56:33.004Z,18.15
2023-03-05T20:59:02.848Z,18.33
2023-03-05T21:01:30.444Z,18.15
2023-03-05T21:03:57.413Z,18.67
2023-03-05T21:06:24.680Z,17.30
2023-03-05T21:08:51.372Z,18.20
2023-03-05T21:11:18.397Z,17.50
2023-03-05T21:13:45.258Z,18.27
2023-03-05T21:16:16.697Z,17.25
2023-03-05T21:18:43.420Z,16.75
2023-03-05T21:21:09.974Z,17.58
2023-03-05T21:23:36.566Z,17.98
2023-03-05T21:26:04.370Z,18.02
2023-03-05T21:28:31.821Z,19.15
2023-03-05T21:30:58.569Z,17.20
2023-03-05T21:33:28.170Z,17.42
2023-03-05T21:35:57.032Z,17.73
2023-03-05T21:38:25.612Z,17.15
2023-03-05T21:40:54.026Z,17.27
2023-03-05T21:43:23.119Z,17.23
2023-03-05T21:45:52.614Z,17.15
2023-03-05T21:48:19.809Z,16.58
2023-03-05T21:50:47.246Z,16.80
2023-03-05T21:53:15.320Z,17.27
2023-03-05T21:56:04.264Z,17.20
2023-03-05T21:58:35.120Z,15.70
2023-03-05T22:01:02.291Z,16.13
2023-03-05T22:03:29.819Z,15.30
2023-03-05T22:05:57.346Z,17.05
2023-03-05T22:08:24.504Z,16.55
2023-03-05T22:10:51.885Z,16.25
2023-03-05T22:13:20.135Z,14.88
2023-03-05T22:15:49.688Z,14.68
2023-03-05T22:18:18.610Z,16.08
2023-03-05T22:20:45.549Z,15.93
2023-03-05T22:23:12.952Z,14.73
2023-03-05T22:25:40.222Z,15.32
2023-03-05T22:28:07.306Z,15.63
2023-03-05T22:30:33.904Z,14.95
2023-03-05T22:33:01.925Z,15.48
2023-03-05T22:35:28.798Z,14.93
2023-03-05T22:37:55.447Z,15.82
2023-03-05T22:40:22.973Z,15.82
2023-03-05T22:42:49.642Z,15.80
2023-03-05T22:45:19.302Z,16.13
2023-03-05T22:47:48.478Z,15.98
2023-03-05T22:50:16.340Z,15.75
2023-03-05T22:52:43.218Z,15.95
2023-03-05T22:55:12.978Z,16.58
2023-03-05T22:57:39.677Z,16.15
2023-03-05T23:00:13.510Z,15.95
2023-03-05T23:02:44.520Z,16.20
2023-03-05T23:05:11.838Z,15.52
2023-03-05T23:07:41.556Z,15.75
2023-03-05T23:10:20.878Z,14.43
2023-03-05T23:12:50.952Z,14.98
2023-03-05T23:15:22.597Z,14.55
2023-03-05T23:17:49.190Z,15.52
2023-03-05T23:20:18.002Z,14.25
2023-03-05T23:22:45.224Z,15.63
2023-03-05T23:25:13.311Z,15.27
2023-03-05T23:27:41.014Z,15.50
2023-03-05T23:30:17.693Z,14.70
2023-03-05T23:32:45.653Z,16.33
2023-03-05T23:35:14.737Z,15.60
2023-03-05T23:37:41.580Z,14.82
2023-03-05T23:40:11.947Z,15.57
2023-03-05T23:42:39.132Z,15.70
2023-03-05T23:45:07.288Z,15.65
2023-03-05T23:47:37.763Z,16.40
2023-03-05T23:50:06.188Z,14.15
2023-03-05T23:52:33.079Z,15.60
2023-03-05T23:54:59.885Z,17.15
2023-03-05T23:57:26.638Z,15.35
2023-03-05T23:59:53.211Z,16.63
